Time;durP1;ratioP1;P1;durP2;ratioP2;P2;SDS_P1;SDS_P2;PMS_P1;PMS_P2;Temp;Humidity;BMP_temperature;BMP_pressure;BME280_temperature;BME280_humidity;BME280_pressure;Samples;Min_cycle;Max_cycle;Signal;HPM_P1;HPM_P2
2022/07/17 00:01:12;;;;;;;2.58;1.60;;;14.00;99.90;;;;;;4971959;28;20082;-88
2022/07/17 00:03:38;;;;;;;3.47;1.90;;;14.00;99.90;;;;;;4995837;28;20037;-89
2022/07/17 00:06:04;;;;;;;3.13;1.70;;;14.00;99.90;;;;;;5000294;28;20031;-89
2022/07/17 00:08:33;;;;;;;3.85;2.03;;;14.00;99.90;;;;;;4982091;28;20093;-89
2022/07/17 00:10:59;;;;;;;5.88;1.90;;;14.00;99.90;;;;;;4989101;28;20101;-89
2022/07/17 00:13:25;;;;;;;6.75;2.00;;;13.90;99.90;;;;;;4987154;28;20038;-88
2022/07/17 00:15:51;;;;;;;3.85;1.92;;;13.90;99.90;;;;;;4976234;28;20033;-88
2022/07/17 00:18:17;;;;;;;2.08;1.80;;;13.90;99.90;;;;;;4991611;28;20058;-89
2022/07/17 00:20:51;;;;;;;3.15;1.60;;;13.80;99.90;;;;;;4989751;28;20034;-87
2022/07/17 00:23:18;;;;;;;8.07;2.05;;;13.80;99.90;;;;;;4991328;28;20146;-88
2022/07/17 00:25:44;;;;;;;5.22;1.85;;;13.70;99.90;;;;;;4969242;28;20510;-88
2022/07/17 00:28:11;;;;;;;6.55;2.45;;;13.70;99.90;;;;;;4990269;28;20038;-88
2022/07/17 00:30:38;;;;;;;3.17;2.20;;;13.60;99.90;;;;;;4978535;28;20042;-89
2022/07/17 00:33:11;;;;;;;3.90;2.00;;;13.60;99.90;;;;;;4996052;28;20420;-88
2022/07/17 00:35:37;;;;;;;2.47;1.95;;;13.50;99.90;;;;;;5001658;28;20085;-90
2022/07/17 00:38:02;;;;;;;6.57;2.40;;;13.60;99.90;;;;;;4997690;28;20394;-88
2022/07/17 00:40:28;;;;;;;2.80;1.85;;;13.60;99.90;;;;;;4994939;28;20504;-87
2022/07/17 00:42:54;;;;;;;4.70;1.92;;;13.50;99.90;;;;;;4994274;28;20093;-89
2022/07/17 00:45:27;;;;;;;4.30;1.90;;;13.50;99.90;;;;;;4991375;28;20043;-88
2022/07/17 00:47:59;;;;;;;6.45;2.08;;;13.50;99.90;;;;;;4977743;28;20034;-87
2022/07/17 00:50:28;;;;;;;6.40;2.13;;;13.50;99.90;;;;;;4978795;28;20027;-88
2022/07/17 00:52:54;;;;;;;13.20;1.95;;;13.50;99.90;;;;;;4978939;28;20074;-88
2022/07/17 00:55:28;;;;;;;4.78;1.60;;;13.50;99.90;;;;;;4978217;28;20740;-89
2022/07/17 00:57:56;;;;;;;7.93;1.90;;;13.50;99.90;;;;;;4986946;28;20181;-88
2022/07/17 01:00:23;;;;;;;3.17;2.33;;;13.50;99.90;;;;;;4980086;28;20081;-88
2022/07/17 01:02:51;;;;;;;4.43;1.90;;;13.40;99.90;;;;;;4982930;28;20045;-89
2022/07/17 01:05:24;;;;;;;4.78;1.67;;;13.40;99.90;;;;;;5011562;28;20034;-91
2022/07/17 01:07:51;;;;;;;7.57;2.38;;;13.40;99.90;;;;;;4999394;28;20030;-88
2022/07/17 01:10:17;;;;;;;5.63;1.70;;;13.40;99.90;;;;;;4990384;28;20514;-87
2022/07/17 01:12:45;;;;;;;5.82;1.80;;;13.40;99.90;;;;;;4987729;28;20037;-88
2022/07/17 01:15:11;;;;;;;4.28;1.77;;;13.30;99.90;;;;;;4979618;28;20118;-88
2022/07/17 01:17:42;;;;;;;5.25;1.92;;;13.30;99.90;;;;;;4968605;28;20517;-88
2022/07/17 01:20:09;;;;;;;2.40;1.80;;;13.20;99.90;;;;;;4988366;28;20083;-88
2022/07/17 01:22:48;;;;;;;5.38;2.10;;;13.20;99.90;;;;;;4988884;28;20453;-88
2022/07/17 01:25:22;;;;;;;4.13;1.90;;;13.20;99.90;;;;;;4974489;28;20031;-87
2022/07/17 01:27:48;;;;;;;9.98;1.83;;;13.20;99.90;;;;;;4987873;28;20035;-88
2022/07/17 01:30:14;;;;;;;3.03;1.95;;;13.10;99.90;;;;;;4993852;28;20130;-88
2022/07/17 01:32:42;;;;;;;8.60;1.88;;;13.20;99.90;;;;;;4981077;28;20030;-89
2022/07/17 01:35:19;;;;;;;7.75;1.73;;;13.20;99.90;;;;;;4978297;28;20030;-88
2022/07/17 01:37:45;;;;;;;7.03;2.50;;;13.30;99.90;;;;;;4992930;28;20061;-89
2022/07/17 01:40:13;;;;;;;7.38;2.28;;;13.20;99.90;;;;;;4984732;28;20038;-88
2022/07/17 01:42:43;;;;;;;3.72;1.75;;;13.20;99.90;;;;;;4982318;28;20495;-88
2022/07/17 01:45:19;;;;;;;7.18;2.22;;;13.30;99.90;;;;;;4990195;28;20033;-89
2022/07/17 01:47:45;;;;;;;8.93;2.05;;;13.30;99.90;;;;;;4975456;28;20049;-90
2022/07/17 01:50:12;;;;;;;5.95;1.80;;;13.30;99.90;;;;;;4977775;28;20043;-89
2022/07/17 01:52:39;;;;;;;5.90;1.77;;;13.20;99.90;;;;;;4978082;28;20061;-88
2022/07/17 01:55:15;;;;;;;9.30;2.00;;;13.20;99.90;;;;;;4987994;28;20053;-90
2022/07/17 01:57:42;;;;;;;6.25;1.95;;;13.20;99.90;;;;;;4990685;28;20122;-89
2022/07/17 02:00:14;;;;;;;3.70;2.10;;;13.20;99.90;;;;;;4977201;28;20053;-89
2022/07/17 02:02:40;;;;;;;;;;;13.20;99.90;;;;;;4977655;28;20549;-90
2022/07/17 02:05:12;;;;;;;6.65;1.95;;;13.10;99.90;;;;;;5001029;28;19914;-89
2022/07/17 02:07:39;;;;;;;9.52;1.80;;;13.10;99.90;;;;;;4966208;28;20034;-89
2022/07/17 02:10:07;;;;;;;10.32;1.88;;;13.00;99.90;;;;;;4971167;28;20035;-89
2022/07/17 02:12:33;;;;;;;3.40;1.55;;;13.10;99.90;;;;;;4978815;28;20103;-89
2022/07/17 02:14:59;;;;;;;4.85;1.45;;;13.00;99.90;;;;;;4973618;28;20043;-89
2022/07/17 02:17:37;;;;;;;5.47;1.42;;;12.90;99.90;;;;;;4984718;28;20117;-88
2022/07/17 02:20:04;;;;;;;4.47;1.63;;;12.90;99.90;;;;;;4985354;28;20673;-89
2022/07/17 02:22:30;;;;;;;2.38;1.60;;;12.80;99.90;;;;;;4977036;28;20050;-88
2022/07/17 02:24:56;;;;;;;5.07;1.55;;;12.80;99.90;;;;;;4990763;28;20116;-88
2022/07/17 02:27:27;;;;;;;4.03;1.83;;;12.90;99.90;;;;;;4971826;28;20045;-89
2022/07/17 02:29:53;;;;;;;12.27;2.05;;;12.80;99.90;;;;;;4983480;28;20038;-89
2022/07/17 02:32:19;;;;;;;3.33;1.63;;;12.80;99.90;;;;;;4994177;28;20105;-88
2022/07/17 02:34:44;;;;;;;4.50;1.60;;;12.80;99.90;;;;;;4986106;28;20027;-90
2022/07/17 02:37:10;;;;;;;3.88;2.15;;;12.70;99.90;;;;;;4976084;28;20084;-89
2022/07/17 02:39:53;;;;;;;5.70;1.70;;;12.70;99.90;;;;;;4989182;28;20113;-88
2022/07/17 02:42:23;;;;;;;7.65;1.77;;;12.70;99.90;;;;;;4976324;28;20045;-88
2022/07/17 02:44:50;;;;;;;4.82;1.27;;;12.70;99.90;;;;;;4976636;28;20393;-88
2022/07/17 02:47:29;;;;;;;6.82;1.63;;;12.70;99.90;;;;;;4976365;28;20072;-88
2022/07/17 02:49:54;;;;;;;4.80;1.80;;;12.70;99.90;;;;;;4982315;28;20034;-88
2022/07/17 02:52:21;;;;;;;5.20;1.95;;;12.80;99.90;;;;;;4970459;28;20423;-89
2022/07/17 02:54:47;;;;;;;5.22;2.03;;;12.70;99.90;;;;;;4974793;28;20433;-88
2022/07/17 02:57:18;;;;;;;4.68;1.65;;;12.80;99.90;;;;;;4992814;28;20031;-87
2022/07/17 02:59:45;;;;;;;3.47;1.48;;;12.80;99.90;;;;;;4976458;28;20113;-87
2022/07/17 03:02:10;;;;;;;7.07;1.50;;;12.70;99.90;;;;;;4986665;28;20042;-88
2022/07/17 03:04:36;;;;;;;5.13;1.60;;;12.70;99.90;;;;;;4976451;28;20039;-88
2022/07/17 03:07:02;;;;;;;3.47;1.48;;;12.70;99.90;;;;;;4977191;28;20025;-88
2022/07/17 03:09:28;;;;;;;4.32;1.58;;;12.60;99.90;;;;;;4983967;28;20035;-88
2022/07/17 03:11:58;;;;;;;11.05;1.90;;;12.60;99.90;;;;;;5006277;28;20169;-88
2022/07/17 03:14:24;;;;;;;3.72;1.58;;;12.50;99.90;;;;;;4976836;28;20033;-88
2022/07/17 03:16:49;;;;;;;9.52;1.67;;;12.50;99.90;;;;;;5001481;28;20034;-90
2022/07/17 03:19:15;;;;;;;6.00;1.90;;;12.50;99.90;;;;;;4997956;28;20014;-91
2022/07/17 03:21:41;;;;;;;5.97;1.83;;;12.60;99.90;;;;;;4986215;28;20779;-88
2022/07/17 03:24:07;;;;;;;5.70;1.65;;;12.60;99.90;;;;;;4985883;28;20023;-88
2022/07/17 03:26:37;;;;;;;7.75;2.40;;;12.50;99.90;;;;;;4985642;28;20392;-88
2022/07/17 03:29:02;;;;;;;5.47;1.50;;;12.50;99.90;;;;;;5003027;28;20035;-87
2022/07/17 03:31:28;;;;;;;1.88;1.25;;;12.40;99.90;;;;;;4971781;28;20177;-88
2022/07/17 03:33:54;;;;;;;6.40;1.75;;;12.40;99.90;;;;;;4976722;28;20018;-88
2022/07/17 03:36:20;;;;;;;4.20;1.63;;;12.40;99.90;;;;;;4987820;28;20082;-88
2022/07/17 03:38:46;;;;;;;5.45;1.50;;;12.50;99.90;;;;;;4989222;28;20042;-88
2022/07/17 03:41:15;;;;;;;4.78;1.55;;;12.50;99.90;;;;;;4976165;28;20019;-88
2022/07/17 03:43:40;;;;;;;2.70;1.10;;;12.60;99.90;;;;;;4989272;28;20037;-88
2022/07/17 03:46:06;;;;;;;3.10;1.45;;;12.70;99.90;;;;;;4967248;28;20019;-88
2022/07/17 03:48:34;;;;;;;6.38;1.50;;;12.80;99.90;;;;;;4983902;28;20041;-88
2022/07/17 03:50:59;;;;;;;5.63;1.80;;;12.90;99.90;;;;;;4991929;28;20018;-88
2022/07/17 03:53:25;;;;;;;5.45;1.83;;;13.00;99.90;;;;;;4975480;28;20535;-88
2022/07/17 03:56:00;;;;;;;5.47;1.65;;;13.10;99.90;;;;;;4976409;28;20028;-88
2022/07/17 03:58:26;;;;;;;6.50;1.85;;;13.10;99.90;;;;;;4982997;28;20038;-90
2022/07/17 04:00:52;;;;;;;7.68;1.50;;;13.20;99.90;;;;;;5013672;28;20030;-88
2022/07/17 04:03:18;;;;;;;12.60;1.98;;;13.20;99.90;;;;;;4986786;28;20394;-88
2022/07/17 04:05:44;;;;;;;3.58;1.50;;;13.20;99.90;;;;;;4980732;28;20034;-88
2022/07/17 04:08:13;;;;;;;3.75;1.50;;;13.10;99.90;;;;;;4979816;28;20088;-87
2022/07/17 04:10:39;;;;;;;3.55;1.48;;;13.20;99.90;;;;;;4987118;28;20030;-87
2022/07/17 04:13:05;;;;;;;4.03;1.48;;;13.20;99.90;;;;;;4979229;28;20029;-88
2022/07/17 04:18:23;;;;;;;5.07;1.83;;;13.20;99.90;;;;;;4983657;28;20523;-87
2022/07/17 04:20:49;;;;;;;4.07;1.70;;;13.30;99.90;;;;;;4971940;28;20030;-89
2022/07/17 04:23:15;;;;;;;3.10;1.45;;;13.30;99.90;;;;;;4993956;28;20041;-88
2022/07/17 04:25:49;;;;;;;7.57;1.60;;;13.40;99.90;;;;;;4974119;28;20028;-87
2022/07/17 04:28:15;;;;;;;7.38;1.80;;;13.40;99.90;;;;;;4970410;28;20030;-88
2022/07/17 04:30:41;;;;;;;5.22;1.58;;;13.50;99.90;;;;;;4965706;28;20627;-88
2022/07/17 04:33:07;;;;;;;7.43;1.75;;;13.50;99.90;;;;;;4986655;28;20055;-88
2022/07/17 04:35:34;;;;;;;9.63;2.00;;;13.50;99.90;;;;;;4980241;28;20019;-87
2022/07/17 04:38:07;;;;;;;7.25;1.95;;;13.60;99.90;;;;;;4990231;28;20030;-88
2022/07/17 04:40:35;;;;;;;2.78;1.38;;;13.60;99.90;;;;;;4979500;28;20035;-88
2022/07/17 04:43:01;;;;;;;10.85;3.13;;;13.70;99.90;;;;;;4987701;28;20069;-88
2022/07/17 04:45:28;;;;;;;3.55;1.50;;;13.70;99.90;;;;;;4978402;28;20030;-88
2022/07/17 04:47:54;;;;;;;3.90;1.38;;;13.80;99.90;;;;;;4983483;28;20442;-88
2022/07/17 04:50:22;;;;;;;10.63;1.48;;;13.90;99.90;;;;;;4988333;28;20125;-87
2022/07/17 04:52:49;;;;;;;4.57;1.38;;;13.90;99.90;;;;;;4993320;28;20022;-88
2022/07/17 04:55:15;;;;;;;7.00;1.75;;;14.10;99.90;;;;;;4993876;28;20758;-88
2022/07/17 04:57:41;;;;;;;3.28;1.38;;;14.10;99.90;;;;;;4994708;28;20026;-88
2022/07/17 05:00:08;;;;;;;7.75;2.35;;;14.10;99.90;;;;;;4978919;28;20026;-88
2022/07/17 05:02:37;;;;;;;7.07;1.80;;;14.20;99.90;;;;;;4981633;28;20080;-88
2022/07/17 05:05:10;;;;;;;8.95;1.85;;;14.30;99.90;;;;;;4976324;28;20476;-89
2022/07/17 05:07:36;;;;;;;7.10;1.63;;;14.40;99.90;;;;;;4959502;28;20041;-88
2022/07/17 05:10:04;;;;;;;3.03;1.50;;;14.50;99.90;;;;;;4959028;28;20035;-90
2022/07/17 05:12:30;;;;;;;5.85;1.40;;;14.60;99.90;;;;;;4958041;28;20404;-89
2022/07/17 05:15:03;;;;;;;3.88;1.30;;;14.60;99.90;;;;;;4975101;28;20033;-87
2022/07/17 05:17:29;;;;;;;4.65;1.67;;;14.70;99.90;;;;;;4974991;28;20201;-88
2022/07/17 05:19:54;;;;;;;7.30;1.48;;;14.80;99.90;;;;;;4959003;28;20026;-87
2022/07/17 05:22:20;;;;;;;6.57;1.40;;;14.90;99.90;;;;;;4959084;28;20031;-88
2022/07/17 05:24:46;;;;;;;4.05;1.75;;;15.00;99.90;;;;;;4972387;28;20774;-88
2022/07/17 05:27:21;;;;;;;7.80;1.73;;;15.10;99.90;;;;;;4969395;28;20376;-88
2022/07/17 05:29:47;;;;;;;7.00;1.38;;;15.20;99.90;;;;;;4989582;28;20031;-88
2022/07/17 05:32:12;;;;;;;4.28;1.70;;;15.20;99.90;;;;;;4990372;28;20037;-87
2022/07/17 05:34:38;;;;;;;10.40;1.50;;;15.30;99.90;;;;;;4975427;28;20034;-88
2022/07/17 05:37:04;;;;;;;3.83;1.50;;;15.30;99.90;;;;;;4973070;28;20057;-88
2022/07/17 05:39:39;;;;;;;4.40;1.52;;;15.50;99.90;;;;;;4978806;28;20034;-88
2022/07/17 05:42:05;;;;;;;3.88;1.60;;;15.60;99.90;;;;;;4975182;28;20042;-87
2022/07/17 05:44:31;;;;;;;5.25;1.77;;;15.60;99.90;;;;;;4961949;28;20035;-88
2022/07/17 05:47:15;;;;;;;;;;;;;;;;;;;;;
2022/07/17 05:49:44;;;;;;;8.95;1.63;;;15.70;99.90;;;;;;4974790;28;20054;-88
2022/07/17 05:52:10;;;;;;;4.70;1.45;;;15.90;99.90;;;;;;4978731;28;20503;-87
2022/07/17 05:55:02;;;;;;;4.90;1.52;;;15.90;99.90;;;;;;4967606;28;20329;-86
2022/07/17 06:01:19;;;;;;;3.30;1.17;;;16.20;99.90;;;;;;4982158;28;20037;-86
2022/07/17 06:03:45;;;;;;;7.25;1.38;;;16.20;99.90;;;;;;4982211;28;20034;-88
2022/07/17 06:06:11;;;;;;;5.47;1.70;;;16.30;99.90;;;;;;4974748;28;20128;-86
2022/07/17 06:08:36;;;;;;;10.52;1.73;;;16.40;99.90;;;;;;4983068;28;20026;-88
2022/07/17 06:11:03;;;;;;;4.50;1.65;;;16.50;99.90;;;;;;4987945;28;20031;-88
2022/07/17 06:13:49;;;;;;;4.63;1.30;;;16.60;99.90;;;;;;4978589;28;20026;-88
2022/07/17 06:16:14;;;;;;;3.40;1.38;;;16.60;99.90;;;;;;4975785;28;20081;-88
2022/07/17 06:19:34;;;;;;;6.30;2.83;;;16.70;99.90;;;;;;4982983;28;20054;-89
2022/07/17 06:22:09;;;;;;;2.75;1.30;;;16.80;99.90;;;;;;4972340;28;20034;-87
2022/07/17 06:24:55;;;;;;;2.97;1.67;;;16.90;99.90;;;;;;4990899;28;20053;-87
2022/07/17 06:27:21;;;;;;;4.75;1.42;;;16.90;99.90;;;;;;4990702;28;20145;-88
2022/07/17 06:29:47;;;;;;;5.30;1.30;;;17.10;99.90;;;;;;4978657;28;20400;-86
2022/07/17 06:32:20;;;;;;;6.05;1.65;;;17.20;99.90;;;;;;4967297;28;20030;-89
2022/07/17 06:35:01;;;;;;;7.47;1.67;;;17.20;99.90;;;;;;4975135;28;20034;-89
2022/07/17 06:37:41;;;;;;;6.50;1.65;;;17.30;99.90;;;;;;4980810;28;20038;-89
2022/07/17 06:40:08;;;;;;;8.15;1.70;;;17.40;99.90;;;;;;4995108;28;20066;-88
2022/07/17 06:42:34;;;;;;;6.45;1.50;;;17.50;99.90;;;;;;4965222;28;20042;-88
2022/07/17 06:44:59;;;;;;;2.58;1.10;;;17.60;99.90;;;;;;4986522;28;20049;-87
2022/07/17 06:47:25;;;;;;;3.38;1.63;;;17.60;99.90;;;;;;4991989;28;20030;-88
2022/07/17 06:50:10;;;;;;;6.28;1.70;;;17.70;99.90;;;;;;4976414;28;20499;-87
2022/07/17 06:52:36;;;;;;;7.18;1.60;;;17.80;99.90;;;;;;4993546;28;20022;-88
2022/07/17 06:55:02;;;;;;;6.90;1.50;;;17.90;99.90;;;;;;4985835;28;20065;-87
2022/07/17 06:57:30;;;;;;;2.50;1.40;;;18.00;99.90;;;;;;5005554;28;20030;-87
2022/07/17 06:59:58;;;;;;;2.38;1.77;;;18.20;99.90;;;;;;4990054;28;20131;-87
2022/07/17 07:02:23;;;;;;;4.95;1.80;;;18.20;99.90;;;;;;4975380;28;20699;-88
2022/07/17 07:04:49;;;;;;;5.18;1.50;;;18.20;99.90;;;;;;4990241;28;20038;-89
2022/07/17 07:07:15;;;;;;;3.03;1.63;;;18.30;99.90;;;;;;4992004;28;20108;-88
2022/07/17 07:09:41;;;;;;;2.17;1.25;;;18.40;99.90;;;;;;4979518;28;20034;-88
2022/07/17 07:12:11;;;;;;;4.85;1.38;;;18.50;99.70;;;;;;4980851;28;20027;-88
2022/07/17 07:14:37;;;;;;;3.05;1.40;;;18.60;99.90;;;;;;4973431;28;20383;-88
2022/07/17 07:17:05;;;;;;;3.80;1.55;;;18.60;99.70;;;;;;4991078;28;20030;-89
2022/07/17 07:19:31;;;;;;;9.43;2.50;;;18.70;98.80;;;;;;4974364;28;20128;-90
2022/07/17 07:21:57;;;;;;;4.50;1.65;;;18.70;98.20;;;;;;4973290;28;20503;-89
2022/07/17 07:24:23;;;;;;;3.85;1.55;;;18.70;98.60;;;;;;4986022;28;20043;-91
2022/07/17 07:26:51;;;;;;;3.97;1.52;;;18.80;98.00;;;;;;4989215;28;20027;-89
2022/07/17 07:29:17;;;;;;;5.30;1.77;;;18.90;98.30;;;;;;4974297;28;20471;-89
2022/07/17 07:31:44;;;;;;;4.53;1.73;;;19.00;96.80;;;;;;4982224;28;20124;-89
2022/07/17 07:34:10;;;;;;;3.38;1.60;;;19.00;97.20;;;;;;4973043;28;20062;-88
2022/07/17 07:36:36;;;;;;;5.10;1.38;;;19.10;97.60;;;;;;4987520;28;20041;-89
2022/07/17 07:39:02;;;;;;;2.03;1.40;;;19.30;96.90;;;;;;4959579;28;20037;-89
2022/07/17 07:41:36;;;;;;;4.03;1.25;;;19.40;96.60;;;;;;4958247;28;20065;-89
2022/07/17 07:44:02;;;;;;;3.40;1.52;;;19.40;96.70;;;;;;4989789;28;20027;-89
2022/07/17 07:46:28;;;;;;;7.97;2.20;;;19.50;95.80;;;;;;4977891;28;20018;-90
2022/07/17 07:48:54;;;;;;;3.30;1.58;;;19.60;95.90;;;;;;4983711;28;20022;-89
2022/07/17 07:51:20;;;;;;;4.07;1.50;;;19.70;94.90;;;;;;4973353;28;20057;-89
2022/07/17 07:53:55;;;;;;;3.47;1.58;;;19.70;94.60;;;;;;4983725;28;20026;-90
2022/07/17 07:56:21;;;;;;;4.15;1.50;;;19.80;94.50;;;;;;4990794;28;20677;-88
2022/07/17 07:58:46;;;;;;;3.20;1.30;;;20.10;94.10;;;;;;4990195;28;20054;-89
2022/07/17 08:01:12;;;;;;;6.50;1.75;;;21.30;92.60;;;;;;4986606;28;20096;-89
2022/07/17 08:03:38;;;;;;;2.67;1.77;;;23.40;91.10;;;;;;4970037;28;20034;-89
2022/07/17 08:06:14;;;;;;;5.18;1.40;;;25.50;82.10;;;;;;4971773;28;20040;-89
2022/07/17 08:08:40;;;;;;;3.15;1.48;;;27.00;74.70;;;;;;4961959;28;20035;-88
2022/07/17 08:11:06;;;;;;;3.03;1.50;;;27.90;69.40;;;;;;4966431;28;20128;-88
2022/07/17 08:13:33;;;;;;;9.38;1.80;;;28.70;63.40;;;;;;4968827;28;20391;-89
2022/07/17 08:16:08;;;;;;;3.55;1.40;;;29.00;59.20;;;;;;4972537;28;20042;-92
2022/07/17 08:18:34;;;;;;;3.33;1.50;;;29.70;57.30;;;;;;4972838;28;20043;-89
2022/07/17 08:21:00;;;;;;;6.43;1.30;;;30.00;55.60;;;;;;4970258;28;20023;-90
2022/07/17 08:23:27;;;;;;;4.30;1.60;;;30.50;55.20;;;;;;4969894;28;20420;-90
2022/07/17 08:25:53;;;;;;;3.80;1.88;;;30.90;53.70;;;;;;4988952;28;20030;-89
2022/07/17 08:28:26;;;;;;;2.35;1.23;;;31.30;53.00;;;;;;4967616;28;20050;-90
2022/07/17 08:30:52;;;;;;;2.33;1.23;;;31.10;52.00;;;;;;4971341;28;20483;-88
2022/07/17 08:33:18;;;;;;;3.65;1.30;;;30.90;51.60;;;;;;4972317;28;20077;-89
2022/07/17 08:35:43;;;;;;;2.75;1.20;;;30.70;51.30;;;;;;4987964;28;20041;-89
2022/07/17 08:38:09;;;;;;;4.20;1.13;;;29.50;51.60;;;;;;4982232;28;20523;-89
2022/07/17 08:40:39;;;;;;;2.33;1.33;;;28.80;52.90;;;;;;4972135;28;20563;-89
2022/07/17 08:43:08;;;;;;;2.30;1.20;;;29.10;52.40;;;;;;4985646;28;20031;-89
2022/07/17 08:45:35;;;;;;;11.18;1.55;;;29.50;52.10;;;;;;4994947;28;20117;-89
2022/07/17 08:48:01;;;;;;;3.05;1.10;;;30.00;51.60;;;;;;4973963;28;20274;-89
2022/07/17 08:50:29;;;;;;;4.53;1.67;;;30.40;50.60;;;;;;4975323;28;20030;-89
2022/07/17 08:52:59;;;;;;;3.30;1.23;;;30.50;50.60;;;;;;4974570;28;20027;-88
2022/07/17 08:55:25;;;;;;;4.95;1.40;;;30.80;50.70;;;;;;4975841;28;20041;-90
2022/07/17 08:57:51;;;;;;;3.10;1.25;;;31.30;49.40;;;;;;4965037;28;20117;-90
2022/07/17 09:00:20;;;;;;;5.35;1.40;;;31.40;48.50;;;;;;4980762;28;20134;-91
2022/07/17 09:03:02;;;;;;;5.13;1.42;;;31.60;48.80;;;;;;4989769;28;20065;-89
2022/07/17 09:05:38;;;;;;;3.95;1.13;;;31.50;49.00;;;;;;4969806;28;20064;-89
2022/07/17 09:08:05;;;;;;;2.33;1.08;;;31.20;48.30;;;;;;4972822;28;20026;-88
2022/07/17 09:10:37;;;;;;;1.40;1.20;;;29.70;51.00;;;;;;4987816;28;20100;-89
2022/07/17 09:13:33;;;;;;;3.97;1.20;;;29.60;49.90;;;;;;4990270;28;20470;-88
2022/07/17 09:16:07;;;;;;;3.78;1.20;;;29.90;50.00;;;;;;4975085;28;20041;-89
2022/07/17 09:19:02;;;;;;;1.95;1.50;;;30.60;49.10;;;;;;4987008;28;20842;-89
2022/07/17 09:21:29;;;;;;;2.47;1.42;;;31.40;47.70;;;;;;4978926;28;20043;-90
2022/07/17 09:24:05;;;;;;;4.03;1.58;;;31.50;47.20;;;;;;5002775;28;20038;-91
2022/07/17 09:26:33;;;;;;;5.20;1.70;;;30.90;48.30;;;;;;4975405;28;20511;-89
2022/07/17 09:29:01;;;;;;;4.43;0.93;;;31.60;48.80;;;;;;4976379;28;20042;-88
2022/07/17 09:31:29;;;;;;;3.53;1.35;;;31.80;46.90;;;;;;4996455;28;20037;-89
2022/07/17 09:34:04;;;;;;;4.20;1.55;;;32.50;46.40;;;;;;4969141;28;20475;-88
2022/07/17 09:36:30;;;;;;;4.97;1.08;;;32.70;46.50;;;;;;4992563;28;20483;-89
2022/07/17 09:38:57;;;;;;;3.75;1.25;;;31.70;47.10;;;;;;4966289;28;20022;-89
2022/07/17 09:41:26;;;;;;;1.58;1.05;;;31.40;46.80;;;;;;4987826;28;20112;-88
2022/07/17 09:44:07;;;;;;;3.72;1.25;;;31.90;45.70;;;;;;5009090;28;20026;-91
2022/07/17 09:46:36;;;;;;;2.33;1.23;;;31.80;46.30;;;;;;4993489;28;20110;-88
2022/07/17 09:49:04;;;;;;;3.10;1.40;;;32.20;46.70;;;;;;4974483;28;20459;-88
2022/07/17 09:51:49;;;;;;;2.67;1.23;;;32.80;44.60;;;;;;4988751;28;20026;-90
2022/07/17 09:54:19;;;;;;;6.88;1.35;;;33.00;44.80;;;;;;4987590;28;20368;-87
2022/07/17 09:57:06;;;;;;;3.30;1.40;;;31.60;45.80;;;;;;4980506;28;20026;-88
2022/07/17 10:03:07;;;;;;;1.98;1.50;;;31.00;46.30;;;;;;4999728;28;20042;-88
2022/07/17 10:06:15;;;;;;;3.00;1.50;;;31.40;45.10;;;;;;4988575;28;20352;-88
2022/07/17 10:08:44;;;;;;;2.58;1.30;;;30.50;45.50;;;;;;4967195;28;20034;-88
2022/07/17 10:11:31;;;;;;;2.80;1.30;;;29.90;46.00;;;;;;4974477;28;20034;-87
2022/07/17 10:18:54;;;;;;;2.53;1.30;;;30.00;46.50;;;;;;4979237;28;20495;-87
2022/07/17 10:25:04;;;;;;;4.95;1.40;;;29.10;48.20;;;;;;4971216;28;20084;-91
2022/07/17 10:28:01;;;;;;;4.03;1.60;;;28.80;47.30;;;;;;4946459;28;20041;-87
2022/07/17 10:34:06;;;;;;;2.42;1.40;;;28.30;48.60;;;;;;4970466;28;20045;-88
2022/07/17 10:36:42;;;;;;;3.95;1.52;;;28.40;48.50;;;;;;4971246;28;20058;-88
2022/07/17 10:39:22;;;;;;;3.83;1.25;;;28.30;48.20;;;;;;4980664;28;20030;-87
2022/07/17 10:42:06;;;;;;;2.55;1.40;;;28.70;49.20;;;;;;4980368;28;20023;-87
2022/07/17 10:44:35;;;;;;;2.10;1.38;;;28.90;48.70;;;;;;4999891;28;20014;-87
2022/07/17 10:47:01;;;;;;;7.75;1.40;;;29.50;46.20;;;;;;4988201;28;20038;-88
2022/07/17 10:49:27;;;;;;;2.70;1.17;;;29.50;46.60;;;;;;4981304;28;20030;-90
2022/07/17 10:51:56;;;;;;;2.92;1.50;;;28.80;47.10;;;;;;4986922;28;20533;-88
2022/07/17 10:54:33;;;;;;;6.13;2.20;;;28.30;47.50;;;;;;4972289;28;20541;-89
2022/07/17 10:57:01;;;;;;;2.67;1.42;;;29.00;47.80;;;;;;4967232;28;20105;-88
2022/07/17 10:59:35;;;;;;;2.40;1.30;;;29.00;47.20;;;;;;4973311;28;20062;-88
2022/07/17 11:02:01;;;;;;;1.77;1.15;;;28.90;47.40;;;;;;4966720;28;20034;-88
2022/07/17 11:04:36;;;;;;;6.13;1.10;;;29.60;47.00;;;;;;4973220;28;20030;-88
2022/07/17 11:07:13;;;;;;;2.00;1.00;;;30.10;46.40;;;;;;4990208;28;20026;-89
2022/07/17 11:09:47;;;;;;;2.58;0.85;;;29.70;46.10;;;;;;4969411;28;20053;-89
2022/07/17 11:12:13;;;;;;;2.28;1.20;;;30.10;45.80;;;;;;4965939;28;20030;-89
2022/07/17 11:14:39;;;;;;;3.83;1.50;;;30.20;46.00;;;;;;4970592;28;20398;-88
2022/07/17 11:17:08;;;;;;;1.27;1.00;;;30.10;45.60;;;;;;4988841;28;20033;-87
2022/07/17 11:19:39;;;;;;;1.50;1.20;;;29.50;46.20;;;;;;4973683;28;20066;-88
2022/07/17 11:22:07;;;;;;;1.65;1.25;;;29.50;45.90;;;;;;4974081;28;20056;-88
2022/07/17 11:24:39;;;;;;;6.05;1.48;;;29.10;46.80;;;;;;4972577;28;20041;-87
2022/07/17 11:27:26;;;;;;;2.42;1.27;;;28.70;47.50;;;;;;4954997;28;20044;-88
2022/07/17 11:29:53;;;;;;;2.00;1.20;;;28.20;47.50;;;;;;4970579;28;20085;-87
2022/07/17 11:32:22;;;;;;;5.28;1.50;;;28.30;46.80;;;;;;4970743;28;20547;-88
2022/07/17 11:35:20;;;;;;;3.90;1.60;;;27.90;47.40;;;;;;4971671;28;20034;-89
2022/07/17 11:37:49;;;;;;;6.82;1.20;;;28.90;47.60;;;;;;4955165;28;20050;-89
2022/07/17 11:40:15;;;;;;;2.55;1.10;;;29.10;46.10;;;;;;4970636;28;20038;-88
2022/07/17 11:42:41;;;;;;;4.30;1.50;;;29.50;46.90;;;;;;4970471;28;20422;-88
2022/07/17 11:45:08;;;;;;;3.50;1.10;;;30.00;45.40;;;;;;4970239;28;20039;-88
2022/07/17 11:47:37;;;;;;;4.18;1.50;;;30.50;45.70;;;;;;4967097;28;20125;-88
2022/07/17 11:50:12;;;;;;;3.45;1.60;;;31.00;45.30;;;;;;4970475;28;20082;-89
2022/07/17 11:52:44;;;;;;;4.53;1.98;;;30.80;44.90;;;;;;4972671;28;20026;-88
2022/07/17 11:55:17;;;;;;;3.65;1.33;;;30.50;44.00;;;;;;4979313;28;20041;-88
2022/07/17 11:57:45;;;;;;;3.40;1.42;;;30.10;44.90;;;;;;4987513;28;20045;-89
2022/07/17 12:00:12;;;;;;;8.63;1.20;;;29.50;45.70;;;;;;4988357;28;20039;-89
2022/07/17 12:05:56;;;;;;;3.67;1.52;;;29.30;44.30;;;;;;4977758;28;20125;-89
2022/07/17 12:08:30;;;;;;;3.42;1.33;;;29.40;45.60;;;;;;4986781;28;20048;-90
2022/07/17 12:11:16;;;;;;;2.92;1.35;;;29.10;46.20;;;;;;4993771;23;20563;-88
2022/07/17 12:13:46;;;;;;;3.25;1.58;;;28.80;46.20;;;;;;5002675;28;20058;-88
2022/07/17 12:16:39;;;;;;;3.92;2.03;;;27.80;46.30;;;;;;4981742;28;20034;-89
2022/07/17 12:19:11;;;;;;;3.38;1.50;;;27.50;46.60;;;;;;4990307;28;20061;-89
2022/07/17 12:21:53;;;;;;;2.58;1.38;;;27.60;46.20;;;;;;4998993;28;20937;-88
2022/07/17 12:24:29;;;;;;;3.60;1.67;;;28.00;46.70;;;;;;4995561;28;20026;-88
2022/07/17 12:26:57;;;;;;;5.57;1.48;;;28.50;47.90;;;;;;4988644;28;20030;-90
2022/07/17 12:29:23;;;;;;;4.68;1.08;;;29.00;45.80;;;;;;4990143;28;20030;-88
2022/07/17 12:31:59;;;;;;;3.65;1.48;;;29.30;46.80;;;;;;4985807;28;20023;-88
2022/07/17 12:34:25;;;;;;;4.95;1.30;;;29.50;45.60;;;;;;5005810;28;20027;-89
2022/07/17 12:36:50;;;;;;;2.97;1.65;;;29.80;44.10;;;;;;4984699;28;20141;-89
2022/07/17 12:39:16;;;;;;;3.35;1.25;;;30.30;43.90;;;;;;4974227;28;20022;-89
2022/07/17 12:41:42;;;;;;;2.72;1.27;;;30.70;44.00;;;;;;4988494;28;20034;-89
2022/07/17 12:44:08;;;;;;;5.63;1.30;;;30.70;43.40;;;;;;4994561;28;20517;-90
2022/07/17 12:46:34;;;;;;;6.30;1.10;;;31.10;44.20;;;;;;4995577;28;20478;-90
2022/07/17 12:48:59;;;;;;;8.82;1.63;;;31.20;42.10;;;;;;4996517;28;20080;-89
2022/07/17 12:51:25;;;;;;;7.30;1.60;;;30.80;41.40;;;;;;5006614;28;20034;-89
2022/07/17 12:53:51;;;;;;;2.35;1.15;;;31.10;42.20;;;;;;4973071;28;20113;-90
2022/07/17 12:56:17;;;;;;;4.35;1.75;;;31.20;42.10;;;;;;5008962;28;20595;-89
2022/07/17 12:58:43;;;;;;;6.50;1.30;;;31.60;42.40;;;;;;4985193;28;20477;-89
2022/07/17 13:01:09;;;;;;;2.45;1.30;;;32.00;41.60;;;;;;5006618;28;20041;-90
2022/07/17 13:03:34;;;;;;;2.50;1.48;;;31.90;42.20;;;;;;4982996;28;20022;-89
2022/07/17 13:06:00;;;;;;;6.90;1.67;;;32.00;43.20;;;;;;4994993;28;20053;-88
2022/07/17 13:08:28;;;;;;;4.30;1.30;;;32.20;42.10;;;;;;4982781;28;20034;-90
2022/07/17 13:10:53;;;;;;;9.50;1.50;;;31.90;40.80;;;;;;4994712;28;20038;-89
2022/07/17 13:13:19;;;;;;;3.95;1.60;;;32.00;41.60;;;;;;4989209;28;20037;-91
2022/07/17 13:15:45;;;;;;;3.28;1.40;;;31.90;42.20;;;;;;5004561;28;20681;-91
2022/07/17 13:18:11;;;;;;;3.58;1.20;;;31.80;42.90;;;;;;5007949;28;20367;-88
2022/07/17 13:20:36;;;;;;;9.23;1.52;;;32.10;41.60;;;;;;4985761;28;20034;-89
2022/07/17 13:23:03;;;;;;;4.25;1.33;;;32.30;41.50;;;;;;4979646;28;20026;-90
2022/07/17 13:25:28;;;;;;;2.33;1.40;;;32.40;41.20;;;;;;5002550;28;20080;-89